sensor_id;sensor_type;location;lat;lon;timestamp;pressure;altitude;pressure_sealevel;temperature;humidity
14757;BME280;40502;47.710;13.072;2022-07-06T00:01:29;101969.69;;;25.25;42.28
14757;BME280;40502;47.710;13.072;2022-07-06T00:04:33;101968.00;;;25.24;42.41
14757;BME280;40502;47.710;13.072;2022-07-06T00:07:37;101971.06;;;25.12;42.90
14757;BME280;40502;47.710;13.072;2022-07-06T00:10:42;101975.56;;;24.92;42.83
14757;BME280;40502;47.710;13.072;2022-07-06T00:13:46;101973.84;;;24.81;43.39
14757;BME280;40502;47.710;13.072;2022-07-06T00:16:50;101974.41;;;24.83;43.25
14757;BME280;40502;47.710;13.072;2022-07-06T00:19:54;101970.47;;;24.74;43.08
14757;BME280;40502;47.710;13.072;2022-07-06T00:22:57;101969.31;;;24.65;43.47
14757;BME280;40502;47.710;13.072;2022-07-06T00:26:03;101977.41;;;24.56;43.25
14757;BME280;40502;47.710;13.072;2022-07-06T00:29:06;101977.94;;;24.48;43.47
14757;BME280;40502;47.710;13.072;2022-07-06T00:32:10;101977.00;;;24.27;44.05
14757;BME280;40502;47.710;13.072;2022-07-06T00:35:14;101990.38;;;24.14;44.28
14757;BME280;40502;47.710;13.072;2022-07-06T00:38:18;101980.28;;;24.08;44.24
14757;BME280;40502;47.710;13.072;2022-07-06T00:41:23;101985.00;;;24.02;44.76
14757;BME280;40502;47.710;13.072;2022-07-06T00:44:27;101980.50;;;23.96;44.55
14757;BME280;40502;47.710;13.072;2022-07-06T00:47:31;101978.25;;;23.93;44.36
14757;BME280;40502;47.710;13.072;2022-07-06T00:50:35;101972.31;;;23.89;44.54
14757;BME280;40502;47.710;13.072;2022-07-06T00:53:40;101967.09;;;24.03;44.34
14757;BME280;40502;47.710;13.072;2022-07-06T00:56:45;101964.00;;;24.05;44.10
14757;BME280;40502;47.710;13.072;2022-07-06T00:59:49;101976.59;;;24.02;43.86
14757;BME280;40502;47.710;13.072;2022-07-06T01:02:53;101968.47;;;24.01;44.04
14757;BME280;40502;47.710;13.072;2022-07-06T01:05:57;101967.31;;;23.97;44.05
14757;BME280;40502;47.710;13.072;2022-07-06T01:09:02;101973.47;;;23.94;43.78
14757;BME280;40502;47.710;13.072;2022-07-06T01:12:08;101968.13;;;23.92;43.96
14757;BME280;40502;47.710;13.072;2022-07-06T01:15:14;101974.56;;;23.87;44.00
14757;BME280;40502;47.710;13.072;2022-07-06T01:18:19;101972.28;;;23.84;44.12
14757;BME280;40502;47.710;13.072;2022-07-06T01:21:25;101968.31;;;23.80;44.08
14757;BME280;40502;47.710;13.072;2022-07-06T01:24:29;101972.22;;;23.79;44.02
14757;BME280;40502;47.710;13.072;2022-07-06T01:27:34;101968.03;;;23.77;43.92
14757;BME280;40502;47.710;13.072;2022-07-06T01:30:39;101963.81;;;23.74;44.22
14757;BME280;40502;47.710;13.072;2022-07-06T01:33:43;101961.56;;;23.71;44.08
14757;BME280;40502;47.710;13.072;2022-07-06T01:36:49;101959.28;;;23.68;44.04
14757;BME280;40502;47.710;13.072;2022-07-06T01:39:57;101948.09;;;23.68;44.18
14757;BME280;40502;47.710;13.072;2022-07-06T01:43:01;101950.31;;;23.66;44.01
14757;BME280;40502;47.710;13.072;2022-07-06T01:46:06;101950.31;;;23.66;43.85
14757;BME280;40502;47.710;13.072;2022-07-06T01:49:10;101951.72;;;23.63;43.77
14757;BME280;40502;47.710;13.072;2022-07-06T01:52:15;101956.50;;;23.68;44.05
14757;BME280;40502;47.710;13.072;2022-07-06T01:55:19;101957.31;;;23.63;43.97
14757;BME280;40502;47.710;13.072;2022-07-06T01:58:23;101965.66;;;23.58;43.96
14757;BME280;40502;47.710;13.072;2022-07-06T02:01:27;101960.34;;;23.56;44.31
14757;BME280;40502;47.710;13.072;2022-07-06T02:04:31;101954.16;;;23.54;43.87
14757;BME280;40502;47.710;13.072;2022-07-06T02:07:37;101949.06;;;23.51;43.98
14757;BME280;40502;47.710;13.072;2022-07-06T02:10:42;101956.91;;;23.49;44.07
14757;BME280;40502;47.710;13.072;2022-07-06T02:13:46;101946.00;;;23.48;44.21
14757;BME280;40502;47.710;13.072;2022-07-06T02:16:50;101953.56;;;23.47;44.04
14757;BME280;40502;47.710;13.072;2022-07-06T02:19:54;101954.09;;;23.44;44.27
14757;BME280;40502;47.710;13.072;2022-07-06T02:22:59;101956.91;;;23.44;44.06
14757;BME280;40502;47.710;13.072;2022-07-06T02:26:03;101963.00;;;23.41;44.03
14757;BME280;40502;47.710;13.072;2022-07-06T02:29:07;101968.59;;;23.41;44.23
14757;BME280;40502;47.710;13.072;2022-07-06T02:32:11;101968.03;;;23.39;44.16
14757;BME280;40502;47.710;13.072;2022-07-06T02:35:15;101968.56;;;23.36;44.07
14757;BME280;40502;47.710;13.072;2022-07-06T02:38:20;101966.88;;;23.35;44.02
14757;BME280;40502;47.710;13.072;2022-07-06T02:41:24;101962.38;;;23.34;44.32
14757;BME280;40502;47.710;13.072;2022-07-06T02:44:29;101961.81;;;23.32;44.11
14757;BME280;40502;47.710;13.072;2022-07-06T02:47:33;101957.91;;;23.33;44.04
14757;BME280;40502;47.710;13.072;2022-07-06T02:50:38;101956.75;;;23.29;44.22
14757;BME280;40502;47.710;13.072;2022-07-06T02:53:44;101952.84;;;23.30;44.22
14757;BME280;40502;47.710;13.072;2022-07-06T02:56:47;101958.47;;;23.30;44.14
14757;BME280;40502;47.710;13.072;2022-07-06T02:59:55;101963.47;;;23.28;44.14
14757;BME280;40502;47.710;13.072;2022-07-06T03:02:59;101965.69;;;23.26;44.13
14757;BME280;40502;47.710;13.072;2022-07-06T03:06:04;101964.25;;;23.23;44.10
14757;BME280;40502;47.710;13.072;2022-07-06T03:09:09;101966.78;;;23.25;44.11
14757;BME280;40502;47.710;13.072;2022-07-06T03:12:13;101962.28;;;23.24;44.04
14757;BME280;40502;47.710;13.072;2022-07-06T03:15:18;101971.81;;;23.23;44.04
14757;BME280;40502;47.710;13.072;2022-07-06T03:18:22;101967.34;;;23.21;43.94
14757;BME280;40502;47.710;13.072;2022-07-06T03:21:27;101970.13;;;23.21;44.00
14757;BME280;40502;47.710;13.072;2022-07-06T03:24:32;101966.16;;;23.17;43.91
14757;BME280;40502;47.710;13.072;2022-07-06T03:27:36;101964.50;;;23.16;43.97
14757;BME280;40502;47.710;13.072;2022-07-06T03:30:40;101972.31;;;23.14;44.22
14757;BME280;40502;47.710;13.072;2022-07-06T03:33:44;101973.41;;;23.13;44.17
14757;BME280;40502;47.710;13.072;2022-07-06T03:36:48;101974.53;;;23.12;44.14
14757;BME280;40502;47.710;13.072;2022-07-06T03:39:54;101975.38;;;23.13;43.98
14757;BME280;40502;47.710;13.072;2022-07-06T03:42:58;101978.66;;;23.10;43.98
14757;BME280;40502;47.710;13.072;2022-07-06T03:46:05;101978.94;;;23.08;44.11
14757;BME280;40502;47.710;13.072;2022-07-06T03:49:09;101977.25;;;23.07;44.10
14757;BME280;40502;47.710;13.072;2022-07-06T03:52:13;101984.53;;;23.08;44.20
14757;BME280;40502;47.710;13.072;2022-07-06T03:55:26;101982.56;;;23.09;44.03
14757;BME280;40502;47.710;13.072;2022-07-06T03:58:34;101980.31;;;23.06;44.20
14757;BME280;40502;47.710;13.072;2022-07-06T04:01:38;101984.19;;;23.04;43.92
14757;BME280;40502;47.710;13.072;2022-07-06T04:04:43;101992.34;;;23.06;44.10
14757;BME280;40502;47.710;13.072;2022-07-06T04:07:47;101986.75;;;23.06;44.11
14757;BME280;40502;47.710;13.072;2022-07-06T04:10:53;101980.56;;;23.04;43.96
14757;BME280;40502;47.710;13.072;2022-07-06T04:13:57;101984.19;;;23.04;44.03
14757;BME280;40502;47.710;13.072;2022-07-06T04:17:01;101978.31;;;23.01;43.94
14757;BME280;40502;47.710;13.072;2022-07-06T04:20:26;101969.91;;;23.01;43.96
14757;BME280;40502;47.710;13.072;2022-07-06T04:23:31;101971.00;;;23.00;44.04
14757;BME280;40502;47.710;13.072;2022-07-06T04:26:38;101975.78;;;22.99;44.11
14757;BME280;40502;47.710;13.072;2022-07-06T04:29:42;101970.44;;;22.98;44.22
14757;BME280;40502;47.710;13.072;2022-07-06T04:32:46;101962.06;;;22.98;44.03
14757;BME280;40502;47.710;13.072;2022-07-06T04:35:50;101966.81;;;22.97;44.02
14757;BME280;40502;47.710;13.072;2022-07-06T04:38:58;101969.63;;;22.97;44.16
14757;BME280;40502;47.710;13.072;2022-07-06T04:42:04;101968.19;;;22.95;44.05
14757;BME280;40502;47.710;13.072;2022-07-06T04:45:09;101970.38;;;22.93;44.26
14757;BME280;40502;47.710;13.072;2022-07-06T04:48:13;101972.34;;;22.92;44.07
14757;BME280;40502;47.710;13.072;2022-07-06T04:51:17;101989.97;;;22.93;44.16
14757;BME280;40502;47.710;13.072;2022-07-06T04:54:21;101981.56;;;22.93;44.05
14757;BME280;40502;47.710;13.072;2022-07-06T04:57:26;101982.09;;;22.90;44.06
14757;BME280;40502;47.710;13.072;2022-07-06T05:00:34;101986.03;;;22.89;44.20
14757;BME280;40502;47.710;13.072;2022-07-06T05:03:38;101986.88;;;22.89;44.23
14757;BME280;40502;47.710;13.072;2022-07-06T05:06:45;101986.59;;;22.91;44.09
14757;BME280;40502;47.710;13.072;2022-07-06T05:09:49;101989.94;;;22.88;44.15
14757;BME280;40502;47.710;13.072;2022-07-06T05:12:56;102001.13;;;22.88;44.23
14757;BME280;40502;47.710;13.072;2022-07-06T05:16:02;101995.53;;;22.88;44.11
14757;BME280;40502;47.710;13.072;2022-07-06T05:19:06;101989.31;;;22.85;44.19
14757;BME280;40502;47.710;13.072;2022-07-06T05:22:10;101991.28;;;22.85;44.19
14757;BME280;40502;47.710;13.072;2022-07-06T05:25:14;101988.75;;;22.83;44.15
14757;BME280;40502;47.710;13.072;2022-07-06T05:28:20;101988.75;;;22.83;44.11
14757;BME280;40502;47.710;13.072;2022-07-06T05:31:24;101988.75;;;22.83;44.04
14757;BME280;40502;47.710;13.072;2022-07-06T05:34:28;101993.53;;;22.83;44.22
14757;BME280;40502;47.710;13.072;2022-07-06T05:37:32;101997.16;;;22.83;44.15
14757;BME280;40502;47.710;13.072;2022-07-06T05:40:36;101997.41;;;22.82;44.13
14757;BME280;40502;47.710;13.072;2022-07-06T05:43:42;101992.91;;;22.81;44.12
14757;BME280;40502;47.710;13.072;2022-07-06T05:46:46;101997.69;;;22.80;44.15
14757;BME280;40502;47.710;13.072;2022-07-06T05:49:50;101998.78;;;22.79;44.23
14757;BME280;40502;47.710;13.072;2022-07-06T05:53:18;101998.22;;;22.77;44.09
14757;BME280;40502;47.710;13.072;2022-07-06T05:56:26;101997.09;;;22.78;44.08
14757;BME280;40502;47.710;13.072;2022-07-06T05:59:31;101995.97;;;22.79;44.10
14757;BME280;40502;47.710;13.072;2022-07-06T06:02:39;101992.09;;;22.80;44.04
14757;BME280;40502;47.710;13.072;2022-07-06T06:05:45;101995.97;;;22.79;44.12
14757;BME280;40502;47.710;13.072;2022-07-06T06:08:51;101999.03;;;22.78;44.11
14757;BME280;40502;47.710;13.072;2022-07-06T06:11:55;101989.81;;;22.77;44.18
14757;BME280;40502;47.710;13.072;2022-07-06T06:15:02;101995.41;;;22.77;44.06
14757;BME280;40502;47.710;13.072;2022-07-06T06:18:06;101995.97;;;22.79;43.99
14757;BME280;40502;47.710;13.072;2022-07-06T06:21:10;101997.69;;;22.80;43.97
14757;BME280;40502;47.710;13.072;2022-07-06T06:24:14;102003.84;;;22.82;43.84
14757;BME280;40502;47.710;13.072;2022-07-06T06:27:18;102003.31;;;22.85;43.89
14757;BME280;40502;47.710;13.072;2022-07-06T06:30:23;102009.50;;;22.88;43.72
14757;BME280;40502;47.710;13.072;2022-07-06T06:33:28;102010.06;;;22.90;43.70
14757;BME280;40502;47.710;13.072;2022-07-06T06:36:32;102011.25;;;22.94;43.64
14757;BME280;40502;47.710;13.072;2022-07-06T06:39:36;102004.53;;;22.95;43.60
14757;BME280;40502;47.710;13.072;2022-07-06T06:42:40;102003.41;;;22.96;43.70
14757;BME280;40502;47.710;13.072;2022-07-06T06:45:48;102006.81;;;22.98;43.62
14757;BME280;40502;47.710;13.072;2022-07-06T06:48:52;102012.41;;;22.98;43.57
14757;BME280;40502;47.710;13.072;2022-07-06T06:51:56;102004.59;;;23.00;43.52
14757;BME280;40502;47.710;13.072;2022-07-06T06:55:20;102006.28;;;23.01;43.27
14757;BME280;40502;47.710;13.072;2022-07-06T06:58:24;102013.56;;;23.02;43.38
14757;BME280;40502;47.710;13.072;2022-07-06T07:01:30;102016.09;;;23.03;43.44
14757;BME280;40502;47.710;13.072;2022-07-06T07:04:35;102020.34;;;23.06;43.27
14757;BME280;40502;47.710;13.072;2022-07-06T07:07:39;102018.63;;;23.05;43.34
14757;BME280;40502;47.710;13.072;2022-07-06T07:10:43;102019.47;;;23.06;43.31
14757;BME280;40502;47.710;13.072;2022-07-06T07:13:47;102018.09;;;23.08;43.23
14757;BME280;40502;47.710;13.072;2022-07-06T07:16:52;102015.56;;;23.07;42.93
14757;BME280;40502;47.710;13.072;2022-07-06T07:19:56;102022.00;;;23.07;43.11
14757;BME280;40502;47.710;13.072;2022-07-06T07:23:00;102016.41;;;23.07;43.24
14757;BME280;40502;47.710;13.072;2022-07-06T07:26:04;102021.19;;;23.07;43.41
14757;BME280;40502;47.710;13.072;2022-07-06T07:29:09;102031.53;;;23.06;43.15
14757;BME280;40502;47.710;13.072;2022-07-06T07:32:14;102025.94;;;23.06;43.18
14757;BME280;40502;47.710;13.072;2022-07-06T07:35:18;102036.25;;;23.06;43.19
14757;BME280;40502;47.710;13.072;2022-07-06T07:38:22;102030.66;;;23.06;43.41
14757;BME280;40502;47.710;13.072;2022-07-06T07:41:26;102038.50;;;23.03;43.50
14757;BME280;40502;47.710;13.072;2022-07-06T07:44:30;102036.16;;;22.95;43.76
14757;BME280;40502;47.710;13.072;2022-07-06T07:47:36;102033.63;;;22.94;43.57
14757;BME280;40502;47.710;13.072;2022-07-06T07:50:40;102031.09;;;22.92;43.66
14757;BME280;40502;47.710;13.072;2022-07-06T07:53:44;102039.22;;;22.94;43.56
14757;BME280;40502;47.710;13.072;2022-07-06T07:56:48;102039.22;;;22.94;43.53
14757;BME280;40502;47.710;13.072;2022-07-06T07:59:52;102037.53;;;22.93;43.53
14757;BME280;40502;47.710;13.072;2022-07-06T08:02:57;102038.66;;;22.92;43.64
14757;BME280;40502;47.710;13.072;2022-07-06T08:06:01;102038.91;;;22.90;43.63
14757;BME280;40502;47.710;13.072;2022-07-06T08:09:05;102032.44;;;22.90;43.71
14757;BME280;40502;47.710;13.072;2022-07-06T08:12:10;102040.84;;;22.90;43.45
14757;BME280;40502;47.710;13.072;2022-07-06T08:15:14;102034.78;;;22.98;43.25
14757;BME280;40502;47.710;13.072;2022-07-06T08:18:20;102032.56;;;23.00;43.24
14757;BME280;40502;47.710;13.072;2022-07-06T08:21:24;102022.44;;;22.94;43.40
14757;BME280;40502;47.710;13.072;2022-07-06T08:24:29;102024.66;;;22.92;43.51
14757;BME280;40502;47.710;13.072;2022-07-06T08:27:33;102022.97;;;22.91;43.46
14757;BME280;40502;47.710;13.072;2022-07-06T08:30:37;102027.72;;;22.90;43.47
14757;BME280;40502;47.710;13.072;2022-07-06T08:33:42;102024.06;;;22.90;43.47
14757;BME280;40502;47.710;13.072;2022-07-06T08:36:46;102026.84;;;22.90;43.38
14757;BME280;40502;47.710;13.072;2022-07-06T08:39:50;102028.56;;;22.91;43.45
14757;BME280;40502;47.710;13.072;2022-07-06T08:42:54;102025.19;;;22.89;43.45
14757;BME280;40502;47.710;13.072;2022-07-06T08:45:58;102024.31;;;22.88;43.46
14757;BME280;40502;47.710;13.072;2022-07-06T08:49:05;102017.91;;;22.88;43.46
14757;BME280;40502;47.710;13.072;2022-07-06T08:52:10;102025.19;;;22.89;43.51
14757;BME280;40502;47.710;13.072;2022-07-06T08:55:15;102029.09;;;22.88;43.54
14757;BME280;40502;47.710;13.072;2022-07-06T08:58:20;102035.78;;;22.86;43.42
14757;BME280;40502;47.710;13.072;2022-07-06T09:01:27;102036.88;;;22.85;43.66
14757;BME280;40502;47.710;13.072;2022-07-06T09:04:33;102040.81;;;22.84;43.49
14757;BME280;40502;47.710;13.072;2022-07-06T09:07:40;102038.28;;;22.83;43.59
14757;BME280;40502;47.710;13.072;2022-07-06T09:11:01;102031.81;;;22.82;43.58
14757;BME280;40502;47.710;13.072;2022-07-06T09:14:05;102035.72;;;22.81;43.49
14757;BME280;40502;47.710;13.072;2022-07-06T09:17:09;102043.00;;;22.82;43.49
14757;BME280;40502;47.710;13.072;2022-07-06T09:20:19;102041.34;;;22.81;43.30
14757;BME280;40502;47.710;13.072;2022-07-06T09:23:23;102042.44;;;22.80;43.45
14757;BME280;40502;47.710;13.072;2022-07-06T09:26:28;102046.06;;;22.81;43.50
14757;BME280;40502;47.710;13.072;2022-07-06T09:29:32;102054.72;;;22.79;43.47
14757;BME280;40502;47.710;13.072;2022-07-06T09:32:40;102058.09;;;22.81;43.41
14757;BME280;40502;47.710;13.072;2022-07-06T09:35:46;102062.56;;;22.82;43.11
14757;BME280;40502;47.710;13.072;2022-07-06T09:38:51;102074.91;;;22.81;43.16
14757;BME280;40502;47.710;13.072;2022-07-06T09:41:57;102082.69;;;22.79;43.20
14757;BME280;40502;47.710;13.072;2022-07-06T09:45:03;102086.09;;;22.81;43.27
14757;BME280;40502;47.710;13.072;2022-07-06T09:48:10;102096.75;;;22.84;43.23
14757;BME280;40502;47.710;13.072;2022-07-06T09:51:16;102081.19;;;22.94;43.47
14757;BME280;40502;47.710;13.072;2022-07-06T09:54:27;102087.41;;;23.01;43.55
14757;BME280;40502;47.710;13.072;2022-07-06T09:57:31;102082.72;;;23.07;43.57
14757;BME280;40502;47.710;13.072;2022-07-06T10:00:35;102086.47;;;23.12;43.90
14757;BME280;40502;47.710;13.072;2022-07-06T10:03:40;102085.13;;;23.20;43.96
14757;BME280;40502;47.710;13.072;2022-07-06T10:06:46;102089.41;;;23.28;43.38
14757;BME280;40502;47.710;13.072;2022-07-06T10:09:51;102088.34;;;23.34;43.09
14757;BME280;40502;47.710;13.072;2022-07-06T10:12:56;102085.91;;;23.43;43.20
14757;BME280;40502;47.710;13.072;2022-07-06T10:16:01;102077.88;;;23.51;43.19
14757;BME280;40502;47.710;13.072;2022-07-06T10:19:06;102074.06;;;23.63;43.34
14757;BME280;40502;47.710;13.072;2022-07-06T10:22:12;102071.94;;;23.75;43.81
14757;BME280;40502;47.710;13.072;2022-07-06T10:25:18;102071.41;;;23.83;43.48
14757;BME280;40502;47.710;13.072;2022-07-06T10:28:22;102071.50;;;23.88;44.14
14757;BME280;40502;47.710;13.072;2022-07-06T10:31:26;102065.38;;;23.92;43.78
14757;BME280;40502;47.710;13.072;2022-07-06T10:34:31;102056.38;;;23.89;42.29
14757;BME280;40502;47.710;13.072;2022-07-06T10:37:38;102061.69;;;23.86;41.81
14757;BME280;40502;47.710;13.072;2022-07-06T10:41:02;102068.63;;;23.83;41.92
14757;BME280;40502;47.710;13.072;2022-07-06T10:44:15;102059.66;;;23.81;42.51
14757;BME280;40502;47.710;13.072;2022-07-06T10:47:27;102066.38;;;23.80;42.61
14757;BME280;40502;47.710;13.072;2022-07-06T10:50:34;102067.47;;;23.79;42.54
14757;BME280;40502;47.710;13.072;2022-07-06T10:53:40;102077.28;;;23.77;42.90
14757;BME280;40502;47.710;13.072;2022-07-06T10:56:48;102074.75;;;23.75;42.70
14757;BME280;40502;47.710;13.072;2022-07-06T11:00:00;102071.63;;;23.71;43.09
14757;BME280;40502;47.710;13.072;2022-07-06T11:03:32;102076.91;;;23.68;43.35
14757;BME280;40502;47.710;13.072;2022-07-06T11:06:38;102074.06;;;23.63;43.11
14757;BME280;40502;47.710;13.072;2022-07-06T11:09:53;102076.28;;;23.61;43.37
14757;BME280;40502;47.710;13.072;2022-07-06T11:12:58;102068.09;;;23.54;43.50
14757;BME280;40502;47.710;13.072;2022-07-06T11:16:02;102058.28;;;23.51;43.88
14757;BME280;40502;47.710;13.072;2022-07-06T11:19:09;102058.88;;;23.53;43.94
14757;BME280;40502;47.710;13.072;2022-07-06T11:22:15;102057.16;;;23.52;44.34
14757;BME280;40502;47.710;13.072;2022-07-06T11:25:21;102062.22;;;23.50;44.44
14757;BME280;40502;47.710;13.072;2022-07-06T11:28:25;102061.59;;;23.48;44.93
14757;BME280;40502;47.710;13.072;2022-07-06T11:31:30;102058.50;;;23.45;44.75
14757;BME280;40502;47.710;13.072;2022-07-06T11:34:35;102064.38;;;23.43;44.91
14757;BME280;40502;47.710;13.072;2022-07-06T11:37:39;102055.38;;;23.41;45.25
14757;BME280;40502;47.710;13.072;2022-07-06T11:40:46;102045.31;;;23.40;44.53
14757;BME280;40502;47.710;13.072;2022-07-06T11:43:50;102049.22;;;23.39;44.04
14757;BME280;40502;47.710;13.072;2022-07-06T11:46:54;102043.06;;;23.37;43.81
14757;BME280;40502;47.710;13.072;2022-07-06T11:49:59;102051.94;;;23.34;43.36
14757;BME280;40502;47.710;13.072;2022-07-06T11:53:02;102040.19;;;23.32;43.53
14757;BME280;40502;47.710;13.072;2022-07-06T11:56:08;102033.16;;;23.29;43.44
14757;BME280;40502;47.710;13.072;2022-07-06T11:59:12;102031.75;;;23.27;43.79
14757;BME280;40502;47.710;13.072;2022-07-06T12:02:15;102022.78;;;23.25;43.47
14757;BME280;40502;47.710;13.072;2022-07-06T12:05:29;102022.78;;;23.25;43.63
14757;BME280;40502;47.710;13.072;2022-07-06T12:08:41;102013.81;;;23.23;43.48
14757;BME280;40502;47.710;13.072;2022-07-06T12:11:46;102014.34;;;23.19;43.30
14757;BME280;40502;47.710;13.072;2022-07-06T12:14:52;102012.66;;;23.18;43.44
14757;BME280;40502;47.710;13.072;2022-07-06T12:17:56;102022.13;;;23.17;43.44
14757;BME280;40502;47.710;13.072;2022-07-06T12:21:00;102012.06;;;23.16;43.60
14757;BME280;40502;47.710;13.072;2022-07-06T12:24:06;102014.88;;;23.16;43.13
14757;BME280;40502;47.710;13.072;2022-07-06T12:27:13;102006.72;;;23.15;43.21
14757;BME280;40502;47.710;13.072;2022-07-06T12:30:18;102000.28;;;23.14;43.36
14757;BME280;40502;47.710;13.072;2022-07-06T12:33:24;101997.50;;;23.14;43.33
14757;BME280;40502;47.710;13.072;2022-07-06T12:36:31;101994.69;;;23.14;43.18
14757;BME280;40502;47.710;13.072;2022-07-06T12:39:41;102001.72;;;23.17;43.17
14757;BME280;40502;47.710;13.072;2022-07-06T12:42:47;101992.50;;;23.16;43.08
14757;BME280;40502;47.710;13.072;2022-07-06T12:45:51;101990.78;;;23.15;43.22
14757;BME280;40502;47.710;13.072;2022-07-06T12:48:55;101993.59;;;23.15;43.19
14757;BME280;40502;47.710;13.072;2022-07-06T12:52:12;101988.56;;;23.17;43.10
14757;BME280;40502;47.710;13.072;2022-07-06T12:55:16;101994.69;;;23.14;43.51
14757;BME280;40502;47.710;13.072;2022-07-06T12:58:22;102003.16;;;23.19;43.24
14757;BME280;40502;47.710;13.072;2022-07-06T13:01:27;101994.25;;;23.28;43.18
14757;BME280;40502;47.710;13.072;2022-07-06T13:04:32;101996.03;;;23.39;42.86
14757;BME280;40502;47.710;13.072;2022-07-06T13:07:37;101997.22;;;23.48;42.96
14757;BME280;40502;47.710;13.072;2022-07-06T13:10:41;101980.75;;;23.57;42.86
14757;BME280;40502;47.710;13.072;2022-07-06T13:13:49;101978.31;;;23.66;42.84
14757;BME280;40502;47.710;13.072;2022-07-06T13:16:53;101976.97;;;23.73;42.99
14757;BME280;40502;47.710;13.072;2022-07-06T13:19:57;101972.22;;;23.79;42.67
14757;BME280;40502;47.710;13.072;2022-07-06T13:23:02;101976.78;;;23.85;43.07
14757;BME280;40502;47.710;13.072;2022-07-06T13:26:06;101969.78;;;23.88;42.39
14757;BME280;40502;47.710;13.072;2022-07-06T13:29:12;101970.66;;;23.88;42.27
14757;BME280;40502;47.710;13.072;2022-07-06T13:32:16;101965.06;;;23.88;41.04
14757;BME280;40502;47.710;13.072;2022-07-06T13:35:20;101961.66;;;23.86;40.91
14757;BME280;40502;47.710;13.072;2022-07-06T13:38:24;101959.97;;;23.85;41.00
14757;BME280;40502;47.710;13.072;2022-07-06T13:41:28;101962.16;;;23.83;40.64
14757;BME280;40502;47.710;13.072;2022-07-06T13:44:33;101967.78;;;23.83;40.70
14757;BME280;40502;47.710;13.072;2022-07-06T13:47:37;101966.34;;;23.81;40.65
14757;BME280;40502;47.710;13.072;2022-07-06T13:50:40;101962.72;;;23.80;41.57
14757;BME280;40502;47.710;13.072;2022-07-06T13:53:44;101963.31;;;23.82;42.00
14757;BME280;40502;47.710;13.072;2022-07-06T13:56:48;101964.47;;;23.86;41.66
14757;BME280;40502;47.710;13.072;2022-07-06T13:59:53;101959.44;;;23.88;41.54
14757;BME280;40502;47.710;13.072;2022-07-06T14:02:57;101964.50;;;23.92;41.44
14757;BME280;40502;47.710;13.072;2022-07-06T14:06:01;101948.84;;;23.96;41.25
14757;BME280;40502;47.710;13.072;2022-07-06T14:09:05;101953.03;;;23.98;41.31
14757;BME280;40502;47.710;13.072;2022-07-06T14:12:09;101942.16;;;24.02;41.11
14757;BME280;40502;47.710;13.072;2022-07-06T14:15:17;101946.09;;;24.06;41.01
14757;BME280;40502;47.710;13.072;2022-07-06T14:18:27;101941.03;;;24.08;41.10
14757;BME280;40502;47.710;13.072;2022-07-06T14:21:31;101934.88;;;24.11;41.71
14757;BME280;40502;47.710;13.072;2022-07-06T14:24:34;101928.44;;;24.11;41.80
14757;BME280;40502;47.710;13.072;2022-07-06T14:27:38;101929.84;;;24.08;42.27
14757;BME280;40502;47.710;13.072;2022-07-06T14:30:45;101919.19;;;24.05;42.04
14757;BME280;40502;47.710;13.072;2022-07-06T14:33:49;101923.63;;;24.01;42.37
14757;BME280;40502;47.710;13.072;2022-07-06T14:36:52;101922.75;;;23.95;42.44
14757;BME280;40502;47.710;13.072;2022-07-06T14:39:56;101917.97;;;23.90;42.46
14757;BME280;40502;47.710;13.072;2022-07-06T14:43:00;101928.03;;;23.86;42.26
14757;BME280;40502;47.710;13.072;2022-07-06T14:46:06;101922.97;;;23.83;42.47
14757;BME280;40502;47.710;13.072;2022-07-06T14:49:09;101916.78;;;23.81;42.67
14757;BME280;40502;47.710;13.072;2022-07-06T14:52:21;101927.41;;;23.79;42.56
14757;BME280;40502;47.710;13.072;2022-07-06T14:55:25;101918.44;;;23.77;42.45
14757;BME280;40502;47.710;13.072;2022-07-06T14:58:29;101939.16;;;23.76;42.38
14757;BME280;40502;47.710;13.072;2022-07-06T15:01:34;101933.56;;;23.76;42.80
14757;BME280;40502;47.710;13.072;2022-07-06T15:04:38;101930.19;;;23.74;42.58
14757;BME280;40502;47.710;13.072;2022-07-06T15:07:45;101934.09;;;23.73;42.74
14757;BME280;40502;47.710;13.072;2022-07-06T15:10:56;101927.66;;;23.72;42.59
14757;BME280;40502;47.710;13.072;2022-07-06T15:14:00;101917.00;;;23.69;42.74
14757;BME280;40502;47.710;13.072;2022-07-06T15:17:05;101922.88;;;23.68;42.88
14757;BME280;40502;47.710;13.072;2022-07-06T15:20:10;101922.28;;;23.66;42.70
14757;BME280;40502;47.710;13.072;2022-07-06T15:23:15;101912.50;;;23.63;42.67
14757;BME280;40502;47.710;13.072;2022-07-06T15:26:18;101918.09;;;23.63;42.75
14757;BME280;40502;47.710;13.072;2022-07-06T15:29:22;101906.03;;;23.63;42.98
14757;BME280;40502;47.710;13.072;2022-07-06T15:32:29;101897.09;;;23.61;42.69
14757;BME280;40502;47.710;13.072;2022-07-06T15:35:33;101898.19;;;23.60;42.80
14757;BME280;40502;47.710;13.072;2022-07-06T15:38:37;101895.66;;;23.58;43.01
14757;BME280;40502;47.710;13.072;2022-07-06T15:41:42;101903.22;;;23.58;42.89
14757;BME280;40502;47.710;13.072;2022-07-06T15:44:46;101897.03;;;23.55;43.07
14757;BME280;40502;47.710;13.072;2022-07-06T15:47:52;101893.41;;;23.55;43.11
14757;BME280;40502;47.710;13.072;2022-07-06T15:50:57;101891.44;;;23.55;42.80
14757;BME280;40502;47.710;13.072;2022-07-06T15:54:02;101888.63;;;23.55;42.80
14757;BME280;40502;47.710;13.072;2022-07-06T15:57:06;101881.09;;;23.56;42.83